Погода Тюлькубасна неделю

Южно-Казахстанская область, Казахстан

22 - 28 июля
  • 22июля
    Сегодня
    +21°
    +34°
    Ясно и безоблачно
    ВремяПогодаТемператураВлажностьДавлениеВетер, м/сВероятность осадков
    02:00Ясно и безоблачно+21°C50 %694 мм2.1 м/с2 %
    05:00Ясно и безоблачно+20°C49 %694 мм2.0 м/с2 %
    08:00Ясно и безоблачно+25°C42 %696 мм1.1 м/с2 %
    11:00Ясно и безоблачно+31°C31 %696 мм0.1 м/с2 %
    14:00Ясно и безоблачно+33°C29 %696 мм1.3 м/с2 %
    17:00Ясно и безоблачно+32°C27 %695 мм1.7 м/с2 %
    20:00Ясно и безоблачно+26°C42 %695 мм0.3 м/с2 %
    23:00Ясно и безоблачно+23°C57 %694 мм0.9 м/с2 %
  • 23июля
    Вторник
    +21°
    +34°
    Ясно и безоблачно
    ВремяПогодаТемператураВлажностьДавлениеВетер, м/сВероятность осадков
    02:00Ясно и безоблачно+22°C57 %694 мм1.2 м/с2 %
    05:00Небольшая облачность+22°C44 %693 мм1.4 м/с4 %
    08:00Ясно и безоблачно+27°C38 %694 мм0.7 м/с7 %
    11:00Ясно и безоблачно+32°C29 %695 мм2.1 м/с2 %
    14:00Ясно и безоблачно+33°C26 %695 мм2.8 м/с2 %
    17:00Практически безоблачно+33°C22 %694 мм2.3 м/с4 %
    20:00Ясно и безоблачно+27°C31 %694 мм0.3 м/с2 %
    23:00Ясно и безоблачно+24°C49 %693 мм1.2 м/с2 %
  • 24июля
    Среда
    +22°
    +35°
    Ясно и безоблачно
    ВремяПогодаТемператураВлажностьДавлениеВетер, м/сВероятность осадков
    02:00Ясно и безоблачно+23°C56 %692 мм1.4 м/с2 %
    05:00Ясно и безоблачно+22°C52 %692 мм1.6 м/с2 %
    08:00Ясно и безоблачно+28°C38 %693 мм0.5 м/с2 %
    11:00Ясно и безоблачно+33°C25 %694 мм1.8 м/с1 %
    14:00Ясно и безоблачно+35°C23 %693 мм3.0 м/с2 %
    17:00Ясно и безоблачно+33°C25 %692 мм2.5 м/с2 %
    20:00Ясно и безоблачно+28°C29 %692 мм0.4 м/с2 %
    23:00Ясно и безоблачно+25°C45 %691 мм1.4 м/с2 %
  • 25июля
    Четверг
    +24°
    +36°
    Ясно и безоблачно
    ВремяПогодаТемператураВлажностьДавлениеВетер, м/сВероятность осадков
    02:00Ясно и безоблачно+24°C46 %690 мм1.5 м/с2 %
    05:00Ясно и безоблачно+23°C43 %690 мм1.8 м/с2 %
    08:00Ясно и безоблачно+30°C37 %692 мм1.1 м/с2 %
    11:00Ясно и безоблачно+34°C24 %693 мм1.9 м/с2 %
    14:00Ясно и безоблачно+36°C20 %693 мм3.0 м/с2 %
    17:00Ясно и безоблачно+35°C19 %693 мм2.4 м/с2 %
    20:00Ясно и безоблачно+28°C33 %692 мм0.4 м/с2 %
    23:00Ясно и безоблачно+25°C48 %692 мм1.3 м/с2 %
  • 26июля
    Пятница
    +21°
    +37°
    Ясно и безоблачно
    ВремяПогодаТемператураВлажностьДавлениеВетер, м/сВероятность осадков
    02:00Ясно и безоблачно+25°C42 %691 мм1.8 м/с2 %
    05:00Ясно и безоблачно+24°C39 %692 мм1.9 м/с2 %
    08:00Ясно и безоблачно+31°C31 %694 мм2.4 м/с2 %
    11:00Ясно и безоблачно+35°C17 %694 мм3.5 м/с2 %
    14:00Ясно и безоблачно+37°C17 %695 мм3.7 м/с2 %
    17:00Ясно и безоблачно+34°C17 %694 мм3.4 м/с2 %
    20:00Ясно и безоблачно+29°C29 %694 мм0.6 м/с2 %
    23:00Ясно и безоблачно+25°C39 %694 мм0.8 м/с2 %
Мы используем cookies
Соглашаюсь